createdAt,value
2017-09-01T00:00:11.298Z,100942.62
2017-09-01T00:02:38.838Z,100937.84
2017-09-01T00:05:06.394Z,100932.69
2017-09-01T00:07:33.979Z,100936.91
2017-09-01T00:10:01.518Z,100933.55
2017-09-01T00:12:29.057Z,100936.47
2017-09-01T00:14:56.609Z,100935.79
2017-09-01T00:17:24.045Z,100933.09
2017-09-01T00:19:51.551Z,100931.48
2017-09-01T00:22:18.986Z,100937.33
2017-09-01T00:24:46.570Z,100932.40
2017-09-01T00:27:14.019Z,100931.86
2017-09-01T00:29:41.483Z,100936.52
2017-09-01T00:32:08.928Z,100930.61
2017-09-01T00:34:36.432Z,100923.47
2017-09-01T00:37:03.878Z,100925.82
2017-09-01T00:39:31.396Z,100926.42
2017-09-01T00:41:58.853Z,100926.76
2017-09-01T00:44:26.330Z,100926.54
2017-09-01T00:46:53.775Z,100927.34
2017-09-01T00:49:21.282Z,100925.20
2017-09-01T00:51:48.727Z,100920.72
2017-09-01T00:54:16.166Z,100929.02
2017-09-01T00:56:43.626Z,100922.32
2017-09-01T00:59:11.148Z,100922.88
2017-09-01T01:01:38.711Z,100919.54
2017-09-01T01:04:06.150Z,100916.30
2017-09-01T01:06:33.619Z,100919.31
2017-09-01T01:09:01.074Z,100921.82
2017-09-01T01:11:28.638Z,100922.83
2017-09-01T01:13:56.094Z,100915.43
2017-09-01T01:16:23.554Z,100916.48
2017-09-01T01:18:51.125Z,100915.81
2017-09-01T01:21:18.609Z,100910.47
2017-09-01T01:23:46.075Z,100912.19
2017-09-01T01:26:13.553Z,100917.61
2017-09-01T01:28:41.040Z,100917.50
2017-09-01T01:31:08.509Z,100925.05
2017-09-01T01:33:36.052Z,100921.84
2017-09-01T01:36:03.603Z,100918.41
2017-09-01T01:38:31.256Z,100914.63
2017-09-01T01:40:58.718Z,100918.48
2017-09-01T01:43:26.207Z,100917.77
2017-09-01T01:45:53.739Z,100916.22
2017-09-01T01:48:21.190Z,100916.58
2017-09-01T01:50:48.760Z,100920.65
2017-09-01T01:53:16.206Z,100920.88
2017-09-01T01:55:43.650Z,100919.24
2017-09-01T01:58:11.222Z,100918.73
2017-09-01T02:00:38.683Z,100919.86
2017-09-01T02:03:06.265Z,100914.23
2017-09-01T02:05:33.707Z,100911.76
2017-09-01T02:08:01.250Z,100905.45
2017-09-01T02:10:28.685Z,100909.73
2017-09-01T02:12:56.150Z,100904.61
2017-09-01T02:15:23.586Z,100902.20
2017-09-01T02:17:51.056Z,100900.50
2017-09-01T02:20:18.511Z,100900.41
2017-09-01T02:22:45.972Z,100903.11
2017-09-01T02:25:13.417Z,100895.38
2017-09-01T02:27:40.885Z,100890.37
2017-09-01T02:30:08.501Z,100888.03
2017-09-01T02:32:36.042Z,100886.97
2017-09-01T02:35:03.599Z,100883.17
2017-09-01T02:37:31.066Z,100882.23
2017-09-01T02:39:58.497Z,100878.64
2017-09-01T02:42:26.058Z,100878.06
2017-09-01T02:44:53.504Z,100881.56
2017-09-01T02:47:21.051Z,100879.81
2017-09-01T02:49:48.513Z,100879.67
2017-09-01T02:52:15.989Z,100874.45
2017-09-01T02:54:43.459Z,100875.34
2017-09-01T02:57:10.915Z,100878.11
2017-09-01T02:59:38.453Z,100872.02
2017-09-01T03:02:05.917Z,100872.13
2017-09-01T03:04:33.383Z,100872.55
2017-09-01T03:07:00.898Z,100870.59
2017-09-01T03:09:28.364Z,100863.55
2017-09-01T03:11:55.810Z,100863.09
2017-09-01T03:14:23.283Z,100866.14
2017-09-01T03:16:50.746Z,100860.06
2017-09-01T03:19:18.226Z,100859.30
2017-09-01T03:21:45.689Z,100860.14
2017-09-01T03:24:13.150Z,100858.33
2017-09-01T03:26:40.591Z,100858.08
2017-09-01T03:29:08.054Z,100859.09
2017-09-01T03:31:35.498Z,100854.64
2017-09-01T03:34:03.052Z,100859.38
2017-09-01T03:36:30.512Z,100861.86
2017-09-01T03:38:58.063Z,100864.34
2017-09-01T03:41:25.517Z,100861.76
2017-09-01T03:43:52.986Z,100861.27
2017-09-01T03:46:20.413Z,100865.95
2017-09-01T03:48:47.875Z,100866.65
2017-09-01T03:51:15.317Z,100871.70
2017-09-01T03:53:42.809Z,100864.93
2017-09-01T03:56:10.265Z,100869.66
2017-09-01T03:58:37.714Z,100868.84
2017-09-01T04:01:05.183Z,100865.89
2017-09-01T04:03:32.627Z,100871.23
2017-09-01T04:06:00.098Z,100872.30
2017-09-01T04:08:27.574Z,100873.55
2017-09-01T04:10:55.039Z,100877.41
2017-09-01T04:13:22.494Z,100885.27
2017-09-01T04:15:49.953Z,100894.14
2017-09-01T04:18:17.393Z,100888.64
2017-09-01T04:20:44.854Z,100895.45
2017-09-01T04:23:12.303Z,100903.82
2017-09-01T04:25:39.771Z,100901.90
2017-09-01T04:28:07.221Z,100893.59
2017-09-01T04:30:34.724Z,100894.46
2017-09-01T04:33:02.219Z,100900.39
2017-09-01T04:35:29.678Z,100903.45
2017-09-01T04:37:57.222Z,100904.17
2017-09-01T04:40:24.907Z,100902.34
2017-09-01T04:42:52.444Z,100901.03
2017-09-01T04:45:19.914Z,100902.45
2017-09-01T04:47:47.358Z,100906.17
2017-09-01T04:50:14.831Z,100906.02
2017-09-01T04:52:42.271Z,100911.09
2017-09-01T04:55:09.822Z,100912.75
2017-09-01T04:57:37.387Z,100914.83
2017-09-01T05:00:04.827Z,100917.67
2017-09-01T05:02:32.283Z,100924.32
2017-09-01T05:04:59.722Z,100927.23
2017-09-01T05:07:27.182Z,100925.08
2017-09-01T05:09:54.655Z,100927.00
2017-09-01T05:12:22.225Z,100924.60
2017-09-01T05:14:49.665Z,100921.98
2017-09-01T05:17:17.136Z,100934.48
2017-09-01T05:19:44.583Z,100929.94
2017-09-01T05:22:12.158Z,100927.00
2017-09-01T05:24:39.615Z,100931.74
2017-09-01T05:27:07.079Z,100936.16
2017-09-01T05:29:34.627Z,100934.99
2017-09-01T05:32:02.098Z,100931.77
2017-09-01T05:34:30.056Z,100930.56
2017-09-01T05:36:57.533Z,100933.22
2017-09-01T05:39:24.974Z,100932.86
2017-09-01T05:41:52.517Z,100934.23
2017-09-01T05:44:19.964Z,100940.16
2017-09-01T05:46:47.538Z,100938.86
2017-09-01T05:49:14.998Z,100933.62
2017-09-01T05:51:42.582Z,100941.26
2017-09-01T05:54:10.046Z,100938.86
2017-09-01T05:56:37.530Z,100940.80
2017-09-01T05:59:05.088Z,100934.68
2017-09-01T06:01:32.550Z,100940.37
2017-09-01T06:04:00.022Z,100929.28
2017-09-01T06:06:27.529Z,100927.77
2017-09-01T06:08:55.455Z,100928.06
2017-09-01T06:11:23.107Z,100936.38
2017-09-01T06:13:50.583Z,100927.29
2017-09-01T06:16:18.041Z,100931.43
2017-09-01T06:18:45.504Z,100935.41
2017-09-01T06:21:13.014Z,100934.22
2017-09-01T06:23:40.477Z,100930.32
2017-09-01T06:26:07.967Z,100934.17
2017-09-01T06:28:35.434Z,100929.48
2017-09-01T06:31:02.987Z,100930.17
2017-09-01T06:33:30.534Z,100929.70
2017-09-01T06:35:58.005Z,100924.16
2017-09-01T06:38:25.462Z,100924.05
2017-09-01T06:40:52.902Z,100926.40
2017-09-01T06:43:20.470Z,100926.41
2017-09-01T06:45:47.911Z,100926.92
2017-09-01T06:48:15.453Z,100931.27
2017-09-01T06:50:42.901Z,100924.08
2017-09-01T06:53:10.404Z,100921.28
2017-09-01T06:55:37.866Z,100916.08
2017-09-01T06:58:05.306Z,100919.67
2017-09-01T07:00:32.787Z,100917.02
2017-09-01T07:03:00.231Z,100916.91
2017-09-01T07:05:27.786Z,100914.04
2017-09-01T07:07:55.246Z,100907.43
2017-09-01T07:10:22.823Z,100905.73
2017-09-01T07:12:50.262Z,100910.27
2017-09-01T07:15:18.084Z,100912.78
2017-09-01T07:17:45.637Z,100911.88
2017-09-01T07:20:13.502Z,100909.05
2017-09-01T07:22:41.004Z,100902.43
2017-09-01T07:25:08.504Z,100909.03
2017-09-01T07:27:36.293Z,100906.47
2017-09-01T07:30:03.803Z,100909.52
2017-09-01T07:32:31.419Z,100904.66
2017-09-01T07:34:58.881Z,100903.88
2017-09-01T07:37:26.335Z,100905.70
2017-09-01T07:39:53.969Z,100904.42
2017-09-01T07:42:21.477Z,100901.53
2017-09-01T07:44:49.034Z,100900.47
2017-09-01T07:47:16.470Z,100900.09
2017-09-01T07:49:44.584Z,100899.63
2017-09-01T07:52:12.019Z,100902.42
2017-09-01T07:54:39.823Z,100899.28
2017-09-01T07:57:07.347Z,100902.98
2017-09-01T07:59:34.854Z,100903.49
2017-09-01T08:02:02.360Z,100903.77
2017-09-01T08:04:29.926Z,100901.28
2017-09-01T08:06:57.563Z,100903.48
2017-09-01T08:09:25.022Z,100908.56
2017-09-01T08:11:52.590Z,100907.13
2017-09-01T08:14:20.047Z,100904.67
2017-09-01T08:16:47.606Z,100917.98
2017-09-01T08:19:15.216Z,100915.84
2017-09-01T08:21:42.711Z,100917.09
2017-09-01T08:24:10.167Z,100918.77
2017-09-01T08:26:37.640Z,100924.16
2017-09-01T08:29:05.207Z,100922.98
2017-09-01T08:31:32.670Z,100920.25
2017-09-01T08:34:00.129Z,100917.05
2017-09-01T08:36:27.627Z,100922.33
2017-09-01T08:38:55.071Z,100918.84
2017-09-01T08:41:22.584Z,100921.56
2017-09-01T08:43:50.034Z,100929.58
2017-09-01T08:46:17.522Z,100923.12
2017-09-01T08:48:45.035Z,100910.13
2017-09-01T08:51:12.507Z,100911.37
2017-09-01T08:53:39.990Z,100912.26
2017-09-01T08:56:07.525Z,100907.70
2017-09-01T08:58:34.966Z,100912.15
2017-09-01T09:01:02.701Z,100909.56
2017-09-01T09:03:30.178Z,100904.80
2017-09-01T09:05:57.639Z,100905.78
2017-09-01T09:08:25.119Z,100907.75
2017-09-01T09:10:52.569Z,100909.70
2017-09-01T09:13:20.147Z,100902.83
2017-09-01T09:15:47.683Z,100900.97
2017-09-01T09:18:15.150Z,100898.03
2017-09-01T09:20:42.604Z,100899.41
2017-09-01T09:23:10.102Z,100894.32
2017-09-01T09:25:37.875Z,100896.72
2017-09-01T09:28:05.346Z,100892.00
2017-09-01T09:30:32.840Z,100893.61
2017-09-01T09:33:00.307Z,100890.92
2017-09-01T09:35:27.753Z,100884.85
2017-09-01T09:37:55.766Z,100879.62
2017-09-01T09:40:23.295Z,100880.84
2017-09-01T09:42:50.828Z,100883.38
2017-09-01T09:45:18.291Z,100873.40
2017-09-01T09:47:45.813Z,100877.16
2017-09-01T09:50:13.311Z,100868.66
2017-09-01T09:52:40.851Z,100873.62
2017-09-01T09:55:08.296Z,100874.28
2017-09-01T09:57:35.889Z,100873.93
2017-09-01T10:00:03.379Z,100865.97
2017-09-01T10:02:30.830Z,100869.88
2017-09-01T10:04:58.351Z,100873.05
2017-09-01T10:07:25.811Z,100867.86
2017-09-01T10:09:53.280Z,100872.31
2017-09-01T10:12:20.726Z,100870.21
2017-09-01T10:14:48.185Z,100875.34
2017-09-01T10:17:15.635Z,100870.06
2017-09-01T10:19:43.515Z,100867.84
2017-09-01T10:22:11.075Z,100864.60
2017-09-01T10:24:38.552Z,100861.38
2017-09-01T10:27:06.002Z,100860.72
2017-09-01T10:29:33.529Z,100842.82
2017-09-01T10:32:01.005Z,100838.57
2017-09-01T10:34:28.466Z,100843.03
2017-09-01T10:36:55.911Z,100841.86
2017-09-01T10:39:23.454Z,100833.33
2017-09-01T10:41:50.915Z,100833.67
2017-09-01T10:44:18.417Z,100829.20
2017-09-01T10:46:45.870Z,100836.60
2017-09-01T10:49:25.220Z,100842.77
2017-09-01T10:52:04.422Z,100828.09
2017-09-01T10:57:44.572Z,100817.64
2017-09-01T11:00:12.043Z,100821.53
2017-09-01T11:02:39.483Z,100815.98
2017-09-01T11:05:06.942Z,100815.06
2017-09-01T11:07:34.382Z,100810.58
2017-09-01T11:10:01.848Z,100810.12
2017-09-01T11:12:29.297Z,100804.51
2017-09-01T11:14:56.769Z,100817.59
2017-09-01T11:17:24.233Z,100809.28
2017-09-01T11:19:57.263Z,100812.75
2017-09-01T11:22:30.297Z,100807.74
2017-09-01T11:24:57.771Z,100814.33
2017-09-01T11:27:25.306Z,100806.98
2017-09-01T11:29:52.868Z,100810.00
2017-09-01T11:32:20.310Z,100805.09
2017-09-01T11:34:47.787Z,100795.87
2017-09-01T11:37:15.249Z,100799.37
2017-09-01T11:39:42.727Z,100796.69
2017-09-01T11:42:11.147Z,100797.16
2017-09-01T11:44:39.130Z,100791.00
2017-09-01T11:47:06.610Z,100786.61
2017-09-01T11:49:34.174Z,100783.65
2017-09-01T11:52:01.688Z,100790.92
2017-09-01T11:54:29.174Z,100783.16
2017-09-01T11:56:56.736Z,100776.88
2017-09-01T11:59:24.281Z,100775.39
2017-09-01T12:01:53.079Z,100769.47
2017-09-01T12:04:20.523Z,100765.45
2017-09-01T12:06:47.989Z,100767.03
2017-09-01T12:09:15.447Z,100758.63
2017-09-01T12:11:43.008Z,100752.14
2017-09-01T12:14:11.342Z,100755.01
2017-09-01T12:16:38.944Z,100753.81
2017-09-01T12:19:06.391Z,100746.91
2017-09-01T12:21:33.903Z,100735.56
2017-09-01T12:24:03.411Z,100735.21
2017-09-01T12:26:30.903Z,100732.40
2017-09-01T12:28:58.403Z,100725.36
2017-09-01T12:31:25.998Z,100723.62
2017-09-01T12:33:53.474Z,100719.08
2017-09-01T12:36:20.948Z,100721.16
2017-09-01T12:38:48.416Z,100714.80
2017-09-01T12:41:15.872Z,100712.82
2017-09-01T12:43:43.452Z,100709.06
2017-09-01T12:46:10.986Z,100718.34
2017-09-01T12:48:38.502Z,100708.86
2017-09-01T12:51:06.088Z,100710.86
2017-09-01T12:53:33.561Z,100709.03
2017-09-01T12:56:01.042Z,100710.17
2017-09-01T12:58:28.578Z,100699.64
2017-09-01T13:00:56.019Z,100702.99
2017-09-01T13:03:23.487Z,100698.37
2017-09-01T13:05:50.974Z,100698.37
2017-09-01T13:08:18.498Z,100697.50
2017-09-01T13:10:45.954Z,100691.13
2017-09-01T13:13:13.424Z,100686.66
2017-09-01T13:15:40.920Z,100682.94
2017-09-01T13:18:08.406Z,100686.62
2017-09-01T13:20:35.847Z,100682.45
2017-09-01T13:23:03.348Z,100683.98
2017-09-01T13:25:30.910Z,100680.23
2017-09-01T13:27:58.473Z,100674.04
2017-09-01T13:30:25.935Z,100675.03
2017-09-01T13:32:53.463Z,100671.28
2017-09-01T13:35:20.933Z,100670.98
2017-09-01T13:37:48.487Z,100665.13
2017-09-01T13:40:15.975Z,100656.45
2017-09-01T13:42:43.431Z,100662.78
2017-09-01T13:45:10.908Z,100650.19
2017-09-01T13:47:38.361Z,100656.45
2017-09-01T13:50:05.814Z,100643.43
2017-09-01T13:52:33.303Z,100647.20
2017-09-01T13:55:00.759Z,100640.58
2017-09-01T13:57:28.210Z,100631.04
2017-09-01T13:59:55.693Z,100626.48
2017-09-01T14:02:23.147Z,100627.03
2017-09-01T14:04:50.710Z,100633.22
2017-09-01T14:07:18.174Z,100627.03
2017-09-01T14:09:45.790Z,100636.00
2017-09-01T14:12:13.256Z,100628.27
2017-09-01T14:14:40.749Z,100624.02
2017-09-01T14:17:08.299Z,100626.34
2017-09-01T14:19:35.913Z,100625.12
2017-09-01T14:22:03.415Z,100622.41
2017-09-01T14:24:30.876Z,100619.70
2017-09-01T14:26:58.390Z,100620.81
2017-09-01T14:29:25.869Z,100619.63
2017-09-01T14:31:53.585Z,100621.98
2017-09-01T14:34:21.075Z,100619.76
2017-09-01T14:36:48.523Z,100619.63
2017-09-01T14:39:16.035Z,100611.98
2017-09-01T14:41:43.485Z,100619.83
2017-09-01T14:44:11.046Z,100609.85
2017-09-01T14:46:38.630Z,100607.14
2017-09-01T14:49:06.154Z,100609.81
2017-09-01T14:51:33.735Z,100611.91
2017-09-01T14:54:01.351Z,100613.67
2017-09-01T14:56:28.814Z,100612.23
2017-09-01T14:58:56.286Z,100611.16
2017-09-01T15:01:23.762Z,100612.97
2017-09-01T15:03:51.308Z,100605.41
2017-09-01T15:06:18.818Z,100610.09
2017-09-01T15:08:46.324Z,100618.47
2017-09-01T15:11:13.790Z,100611.98
2017-09-01T15:13:41.237Z,100618.46
2017-09-01T15:16:08.704Z,100621.17
2017-09-01T15:18:36.147Z,100627.39
2017-09-01T15:21:03.614Z,100631.78
2017-09-01T15:23:31.063Z,100638.38
2017-09-01T15:25:58.740Z,100646.09
2017-09-01T15:28:26.217Z,100645.30
2017-09-01T15:30:53.735Z,100650.81
2017-09-01T15:33:21.218Z,100652.33
2017-09-01T15:35:48.791Z,100648.25
2017-09-01T15:38:17.449Z,100650.16
2017-09-01T15:40:45.025Z,100654.71
2017-09-01T15:43:12.868Z,100648.62
2017-09-01T15:45:40.330Z,100661.02
2017-09-01T15:48:07.981Z,100658.83
2017-09-01T15:50:35.895Z,100659.36
2017-09-01T15:53:03.399Z,100655.05
2017-09-01T15:55:30.864Z,100653.07
2017-09-01T15:57:58.368Z,100648.14
2017-09-01T16:00:25.897Z,100648.38
2017-09-01T16:02:53.368Z,100648.39
2017-09-01T16:05:20.815Z,100649.58
2017-09-01T16:07:48.288Z,100649.86
2017-09-01T16:10:15.798Z,100653.45
2017-09-01T16:12:43.259Z,100650.55
2017-09-01T16:15:10.715Z,100646.30
2017-09-01T16:17:38.471Z,100647.84
2017-09-01T16:20:05.918Z,100645.04
2017-09-01T16:22:33.396Z,100639.57
2017-09-01T16:25:00.870Z,100644.27
2017-09-01T16:27:28.441Z,100650.31
2017-09-01T16:29:56.148Z,100643.23
2017-09-01T16:32:23.591Z,100641.53
2017-09-01T16:34:51.054Z,100647.98
2017-09-01T16:37:18.563Z,100643.11
2017-09-01T16:39:46.024Z,100642.75
2017-09-01T16:42:13.462Z,100637.89
2017-09-01T16:44:40.990Z,100644.03
2017-09-01T16:47:08.476Z,100638.59
2017-09-01T16:49:35.939Z,100643.36
2017-09-01T16:52:03.401Z,100643.16
2017-09-01T16:54:30.991Z,100642.84
2017-09-01T16:56:58.439Z,100650.51
2017-09-01T16:59:25.921Z,100644.69
2017-09-01T17:01:53.403Z,100642.08
2017-09-01T17:04:20.854Z,100636.60
2017-09-01T17:06:48.376Z,100635.53
2017-09-01T17:09:15.853Z,100629.43
2017-09-01T17:11:43.323Z,100633.44
2017-09-01T17:14:10.787Z,100629.44
2017-09-01T17:16:38.295Z,100632.90
2017-09-01T17:19:05.746Z,100632.20
2017-09-01T17:21:33.462Z,100630.86
2017-09-01T17:24:00.915Z,100634.52
2017-09-01T17:26:28.403Z,100635.14
2017-09-01T17:28:55.845Z,100634.25
2017-09-01T17:31:23.336Z,100638.05
2017-09-01T17:33:51.063Z,100629.38
2017-09-01T17:36:18.566Z,100630.72
2017-09-01T17:38:46.066Z,100633.86
2017-09-01T17:41:13.538Z,100639.58
2017-09-01T17:43:41.006Z,100634.19
2017-09-01T17:46:08.749Z,100635.28
2017-09-01T17:48:36.281Z,100641.94
2017-09-01T17:51:03.738Z,100642.03
2017-09-01T17:53:31.248Z,100651.20
2017-09-01T17:55:58.779Z,100646.08
2017-09-01T17:58:26.306Z,100646.80
2017-09-01T18:00:53.755Z,100650.61
2017-09-01T18:03:21.272Z,100647.63
2017-09-01T18:05:48.768Z,100647.64
2017-09-01T18:08:16.222Z,100656.42
2017-09-01T18:10:43.689Z,100655.34
2017-09-01T18:13:11.154Z,100659.75
2017-09-01T18:15:38.668Z,100664.07
2017-09-01T18:18:06.115Z,100658.73
2017-09-01T18:20:33.658Z,100653.78
2017-09-01T18:23:01.123Z,100654.54
2017-09-01T18:25:28.726Z,100659.61
2017-09-01T18:27:56.197Z,100658.88
2017-09-01T18:30:23.674Z,100664.72
2017-09-01T18:32:51.243Z,100663.33
2017-09-01T18:35:18.721Z,100669.47
2017-09-01T18:37:46.254Z,100668.94
2017-09-01T18:40:13.715Z,100669.78
2017-09-01T18:42:41.183Z,100670.61
2017-09-01T18:45:08.627Z,100668.22
2017-09-01T18:47:36.184Z,100675.17
2017-09-01T18:50:03.741Z,100677.08
2017-09-01T18:52:31.207Z,100680.03
2017-09-01T18:54:58.761Z,100676.91
2017-09-01T18:57:26.338Z,100677.36
2017-09-01T18:59:53.869Z,100675.75
2017-09-01T19:02:21.347Z,100674.48
2017-09-01T19:04:49.257Z,100678.58
2017-09-01T19:07:16.817Z,100687.58
2017-09-01T19:09:44.276Z,100684.14
2017-09-01T19:12:11.783Z,100693.47
2017-09-01T19:14:39.334Z,100685.77
2017-09-01T19:17:07.283Z,100681.20
2017-09-01T19:19:34.739Z,100675.70
2017-09-01T19:22:02.214Z,100674.46
2017-09-01T19:24:29.675Z,100676.80
2017-09-01T19:26:57.128Z,100680.54
2017-09-01T19:29:24.651Z,100679.85
2017-09-01T19:31:52.096Z,100681.88
2017-09-01T19:34:19.678Z,100678.21
2017-09-01T19:36:47.128Z,100683.77
2017-09-01T19:39:14.616Z,100679.86
2017-09-01T19:41:42.061Z,100683.78
2017-09-01T19:44:10.418Z,100679.81
2017-09-01T19:46:37.875Z,100679.65
2017-09-01T19:49:05.353Z,100675.62
2017-09-01T19:51:32.822Z,100677.69
2017-09-01T19:54:00.342Z,100677.76
2017-09-01T19:56:27.839Z,100672.58
2017-09-01T19:58:55.549Z,100674.37
2017-09-01T20:01:23.067Z,100675.84
2017-09-01T20:03:50.576Z,100672.44
2017-09-01T20:06:18.080Z,100675.80
2017-09-01T20:08:45.571Z,100688.69
2017-09-01T20:11:13.015Z,100692.36
2017-09-01T20:13:40.749Z,100698.67
2017-09-01T20:16:08.207Z,100698.59
2017-09-01T20:18:35.654Z,100703.42
2017-09-01T20:21:03.132Z,100701.78
2017-09-01T20:23:30.580Z,100701.45
2017-09-01T20:25:58.988Z,100704.81
2017-09-01T20:28:26.499Z,100704.75
2017-09-01T20:30:53.968Z,100706.84
2017-09-01T20:33:21.425Z,100709.77
2017-09-01T20:35:48.909Z,100710.42
2017-09-01T20:38:16.474Z,100709.91
2017-09-01T20:40:44.009Z,100706.80
2017-09-01T20:43:11.455Z,100714.20
2017-09-01T20:45:38.929Z,100713.06
2017-09-01T20:48:06.368Z,100726.03
2017-09-01T20:50:33.840Z,100732.45
2017-09-01T20:53:01.294Z,100732.94
2017-09-01T20:55:28.803Z,100728.11
2017-09-01T20:57:56.296Z,100724.91
2017-09-01T21:00:23.773Z,100725.66
2017-09-01T21:02:51.244Z,100728.51
2017-09-01T21:05:18.717Z,100730.05
2017-09-01T21:07:46.176Z,100727.44
2017-09-01T21:10:13.638Z,100731.66
2017-09-01T21:12:41.092Z,100729.84
2017-09-01T21:15:10.147Z,100729.88
2017-09-01T21:17:37.685Z,100729.95
2017-09-01T21:20:05.263Z,100726.52
2017-09-01T21:22:32.710Z,100725.55
2017-09-01T21:25:00.162Z,100733.31
2017-09-01T21:27:28.309Z,100738.06
2017-09-01T21:29:55.819Z,100730.45
2017-09-01T21:32:23.348Z,100733.45
2017-09-01T21:34:50.899Z,100734.06
2017-09-01T21:37:18.399Z,100736.33
2017-09-01T21:39:45.915Z,100726.70
2017-09-01T21:42:13.431Z,100726.20
2017-09-01T21:44:40.887Z,100729.36
2017-09-01T21:47:08.389Z,100733.27
2017-09-01T21:49:35.859Z,100737.02
2017-09-01T21:52:03.327Z,100733.57
2017-09-01T21:54:30.767Z,100732.11
2017-09-01T21:56:58.251Z,100734.47
2017-09-01T21:59:25.783Z,100738.28
2017-09-01T22:01:53.290Z,100737.94
2017-09-01T22:04:20.752Z,100739.92
2017-09-01T22:06:48.227Z,100736.03
2017-09-01T22:09:15.709Z,100728.96
2017-09-01T22:11:43.275Z,100734.48
2017-09-01T22:14:10.725Z,100738.68
2017-09-01T22:16:38.281Z,100732.86
2017-09-01T22:19:05.714Z,100737.77
2017-09-01T22:21:33.188Z,100739.14
2017-09-01T22:24:00.742Z,100738.63
2017-09-01T22:26:28.175Z,100740.73
2017-09-01T22:28:55.664Z,100739.72
2017-09-01T22:31:23.107Z,100738.94
2017-09-01T22:33:50.587Z,100730.45
2017-09-01T22:36:18.051Z,100729.92
2017-09-01T22:38:45.514Z,100725.88
2017-09-01T22:41:12.966Z,100728.49
2017-09-01T22:43:40.498Z,100730.66
2017-09-01T22:46:07.944Z,100728.39
2017-09-01T22:48:35.520Z,100722.14
2017-09-01T22:51:02.957Z,100718.11
2017-09-01T22:53:30.538Z,100724.17
2017-09-01T22:55:58.015Z,100723.20
2017-09-01T22:58:25.488Z,100726.28
2017-09-01T23:00:52.998Z,100723.38
2017-09-01T23:03:20.474Z,100723.89
2017-09-01T23:05:47.920Z,100728.03
2017-09-01T23:08:15.388Z,100717.88
2017-09-01T23:10:42.826Z,100712.46
2017-09-01T23:13:10.297Z,100712.03
2017-09-01T23:15:37.741Z,100713.22
2017-09-01T23:18:05.203Z,100710.59
2017-09-01T23:20:32.675Z,100710.58
2017-09-01T23:23:00.217Z,100705.98
2017-09-01T23:25:27.683Z,100708.36
2017-09-01T23:27:55.218Z,100706.00
2017-09-01T23:30:22.688Z,100707.13
2017-09-01T23:32:50.123Z,100712.27
2017-09-01T23:35:17.615Z,100714.20
2017-09-01T23:37:45.059Z,100715.75
2017-09-01T23:40:12.543Z,100718.57
2017-09-01T23:42:40.062Z,100714.55
2017-09-01T23:45:07.547Z,100715.48
2017-09-01T23:47:35.074Z,100712.67
2017-09-01T23:50:02.647Z,100718.02
2017-09-01T23:52:30.094Z,100718.84
2017-09-01T23:54:57.550Z,100721.19
2017-09-01T23:57:25.001Z,100715.75
2017-09-01T23:59:52.778Z,100713.27
